Main page
METAR-TAF:

METAR-TAF

Airports :

Barra do Garças Airport

Barra do Garças, Mato Grosso, Brazil

latitude: 15-52S, longitude: 052-23W, elevation: 350 m

Current weather observation

The report was made 14 hours and 28 minutes ago, at 20:00 UTC
Wind 10 kt from the West
Temperature 31°C
Humidity 55%
Pressure 1010 hPa
Visibility 10 km or more
Few clouds at a height of 2000 ft
Scattered clouds at a height of 9000 ft

METAR: SBBW 132000Z 27010KT 9999 FEW020 SCT090 31/21 Q1010

Time: 07:28 (10:28 UTC)

Forecast

The report was made 6 hours and 28 minutes ago, at 04:00 UTC
Forecast valid from 14 at 06 UTC to 14 at 18 UTC
Wind 7 kt from the West
Visibility 10 km or more
no clouds below 1500 m and no cumulonimbus
Becoming
from 14 at 16 UTC to 14 at 18 UTC
Wind 10 kt from the East/Northeast
Visibility 10 km or more
Few clouds at a height of 4000 ft
Few clouds at a height of 4500 ft, Towering cumulus.

TAF: SBBW 140400Z 1406/1418 26007KT CAVOK TN20/1408Z TX34/1417Z BECMG 1416/1418 06010KT 9999 FEW040 FEW045TCU RMK PED

Weather observations and forecasts of more than 4000 airports (METAR and TAF reports).

The available stations are represented by yellow and red dots on the map.

Hover mouse over dot to see the name of the station.

Then click to see weather observations and forecasts.

To change the map : click on the green buttons with a black cross to zoom in, on the green button with a dash to zoom out, or on the green arrows for adjacent maps.


METAR-TAF: